sensor_id;sensor_type;location;lat;lon;timestamp;P1;durP1;ratioP1;P2;durP2;ratioP2
5153;SDS011;2595;53.584;10.084;2022-08-11T00:00:35;5.70;;;3.00;;
5153;SDS011;2595;53.584;10.084;2022-08-11T00:03:08;2.67;;;2.47;;
5153;SDS011;2595;53.584;10.084;2022-08-11T00:05:45;2.53;;;2.33;;
5153;SDS011;2595;53.584;10.084;2022-08-11T00:08:27;2.90;;;2.70;;
5153;SDS011;2595;53.584;10.084;2022-08-11T00:10:57;2.70;;;2.50;;
5153;SDS011;2595;53.584;10.084;2022-08-11T00:13:39;3.67;;;2.40;;
5153;SDS011;2595;53.584;10.084;2022-08-11T00:18:39;4.27;;;2.43;;
5153;SDS011;2595;53.584;10.084;2022-08-11T00:21:06;2.93;;;2.73;;
5153;SDS011;2595;53.584;10.084;2022-08-11T00:23:33;2.70;;;2.50;;
5153;SDS011;2595;53.584;10.084;2022-08-11T00:26:06;2.60;;;2.40;;
5153;SDS011;2595;53.584;10.084;2022-08-11T00:28:33;4.70;;;2.80;;
5153;SDS011;2595;53.584;10.084;2022-08-11T00:31:06;3.23;;;2.73;;
5153;SDS011;2595;53.584;10.084;2022-08-11T00:33:38;3.10;;;2.90;;
5153;SDS011;2595;53.584;10.084;2022-08-11T00:36:08;4.03;;;2.43;;
5153;SDS011;2595;53.584;10.084;2022-08-11T00:38:38;3.00;;;2.80;;
5153;SDS011;2595;53.584;10.084;2022-08-11T00:47:15;3.00;;;2.80;;
5153;SDS011;2595;53.584;10.084;2022-08-11T00:49:57;4.53;;;2.90;;
5153;SDS011;2595;53.584;10.084;2022-08-11T00:52:28;2.90;;;2.70;;
5153;SDS011;2595;53.584;10.084;2022-08-11T01:00:21;3.43;;;3.23;;
5153;SDS011;2595;53.584;10.084;2022-08-11T01:03:09;2.37;;;2.27;;
5153;SDS011;2595;53.584;10.084;2022-08-11T01:09:13;2.90;;;2.70;;
5153;SDS011;2595;53.584;10.084;2022-08-11T01:35:00;2.60;;;2.40;;
5153;SDS011;2595;53.584;10.084;2022-08-11T01:37:57;2.60;;;2.40;;
5153;SDS011;2595;53.584;10.084;2022-08-11T01:41:02;2.93;;;2.70;;
5153;SDS011;2595;53.584;10.084;2022-08-11T01:47:08;2.30;;;2.20;;
5153;SDS011;2595;53.584;10.084;2022-08-11T01:50:19;2.97;;;2.77;;
5153;SDS011;2595;53.584;10.084;2022-08-11T01:58:42;3.30;;;3.10;;
5153;SDS011;2595;53.584;10.084;2022-08-11T02:09:37;4.10;;;3.90;;
5153;SDS011;2595;53.584;10.084;2022-08-11T02:15:28;4.73;;;3.13;;
5153;SDS011;2595;53.584;10.084;2022-08-11T02:18:03;3.03;;;2.83;;
5153;SDS011;2595;53.584;10.084;2022-08-11T02:26:14;3.03;;;2.83;;
5153;SDS011;2595;53.584;10.084;2022-08-11T02:37:49;3.70;;;3.40;;
5153;SDS011;2595;53.584;10.084;2022-08-11T02:40:23;3.23;;;3.03;;
5153;SDS011;2595;53.584;10.084;2022-08-11T02:57:19;3.50;;;3.20;;
5153;SDS011;2595;53.584;10.084;2022-08-11T03:13:48;7.23;;;4.33;;
5153;SDS011;2595;53.584;10.084;2022-08-11T03:25:21;3.20;;;3.00;;
5153;SDS011;2595;53.584;10.084;2022-08-11T03:28:13;3.50;;;2.87;;
5153;SDS011;2595;53.584;10.084;2022-08-11T03:30:56;3.80;;;3.50;;
5153;SDS011;2595;53.584;10.084;2022-08-11T03:33:48;3.27;;;3.07;;
5153;SDS011;2595;53.584;10.084;2022-08-11T03:39:41;3.30;;;3.00;;
5153;SDS011;2595;53.584;10.084;2022-08-11T03:42:19;3.50;;;3.20;;
5153;SDS011;2595;53.584;10.084;2022-08-11T03:45:16;3.00;;;2.80;;
5153;SDS011;2595;53.584;10.084;2022-08-11T03:56:45;4.23;;;4.03;;
5153;SDS011;2595;53.584;10.084;2022-08-11T03:59:50;4.00;;;3.60;;
5153;SDS011;2595;53.584;10.084;2022-08-11T04:02:40;4.97;;;4.60;;
5153;SDS011;2595;53.584;10.084;2022-08-11T04:28:33;3.90;;;3.70;;
5153;SDS011;2595;53.584;10.084;2022-08-11T04:48:38;5.03;;;4.60;;
5153;SDS011;2595;53.584;10.084;2022-08-11T04:51:34;3.23;;;3.00;;
5153;SDS011;2595;53.584;10.084;2022-08-11T04:58:12;4.60;;;3.63;;
5153;SDS011;2595;53.584;10.084;2022-08-11T05:01:29;4.47;;;4.10;;
5153;SDS011;2595;53.584;10.084;2022-08-11T05:09:45;4.03;;;3.63;;
5153;SDS011;2595;53.584;10.084;2022-08-11T05:15:03;3.93;;;3.63;;
5153;SDS011;2595;53.584;10.084;2022-08-11T05:20:55;4.50;;;4.10;;
5153;SDS011;2595;53.584;10.084;2022-08-11T05:23:46;5.10;;;4.70;;
5153;SDS011;2595;53.584;10.084;2022-08-11T05:26:50;4.43;;;4.13;;
5153;SDS011;2595;53.584;10.084;2022-08-11T05:29:38;4.60;;;4.30;;
5153;SDS011;2595;53.584;10.084;2022-08-11T05:32:24;4.13;;;3.80;;
5153;SDS011;2595;53.584;10.084;2022-08-11T05:35:23;3.60;;;3.40;;
5153;SDS011;2595;53.584;10.084;2022-08-11T05:38:21;4.23;;;4.03;;
5153;SDS011;2595;53.584;10.084;2022-08-11T05:41:10;4.53;;;4.10;;
5153;SDS011;2595;53.584;10.084;2022-08-11T05:43:59;3.90;;;3.70;;
5153;SDS011;2595;53.584;10.084;2022-08-11T05:46:44;4.10;;;3.60;;
5153;SDS011;2595;53.584;10.084;2022-08-11T05:49:30;4.23;;;3.93;;
5153;SDS011;2595;53.584;10.084;2022-08-11T05:52:16;4.20;;;3.90;;
5153;SDS011;2595;53.584;10.084;2022-08-11T05:55:04;4.23;;;3.30;;
5153;SDS011;2595;53.584;10.084;2022-08-11T05:57:53;5.33;;;3.50;;
5153;SDS011;2595;53.584;10.084;2022-08-11T06:00:25;4.13;;;3.67;;
5153;SDS011;2595;53.584;10.084;2022-08-11T06:02:52;4.30;;;4.00;;
5153;SDS011;2595;53.584;10.084;2022-08-11T06:05:20;3.57;;;3.37;;
5153;SDS011;2595;53.584;10.084;2022-08-11T06:07:46;4.27;;;3.80;;
5153;SDS011;2595;53.584;10.084;2022-08-11T06:10:13;4.03;;;3.77;;
5153;SDS011;2595;53.584;10.084;2022-08-11T06:12:57;5.60;;;3.73;;
5153;SDS011;2595;53.584;10.084;2022-08-11T06:15:25;3.57;;;3.33;;
5153;SDS011;2595;53.584;10.084;2022-08-11T06:17:52;4.43;;;4.23;;
5153;SDS011;2595;53.584;10.084;2022-08-11T06:20:19;4.00;;;3.80;;
5153;SDS011;2595;53.584;10.084;2022-08-11T06:22:47;3.63;;;3.43;;
5153;SDS011;2595;53.584;10.084;2022-08-11T06:25:29;3.30;;;3.10;;
5153;SDS011;2595;53.584;10.084;2022-08-11T06:27:56;4.23;;;3.77;;
5153;SDS011;2595;53.584;10.084;2022-08-11T06:30:32;4.07;;;3.87;;
5153;SDS011;2595;53.584;10.084;2022-08-11T06:33:10;7.03;;;3.33;;
5153;SDS011;2595;53.584;10.084;2022-08-11T06:35:50;3.70;;;3.40;;
5153;SDS011;2595;53.584;10.084;2022-08-11T06:41:21;3.57;;;3.27;;
5153;SDS011;2595;53.584;10.084;2022-08-11T06:49:05;3.20;;;3.00;;
5153;SDS011;2595;53.584;10.084;2022-08-11T06:51:53;2.87;;;2.67;;
5153;SDS011;2595;53.584;10.084;2022-08-11T06:54:20;3.93;;;2.93;;
5153;SDS011;2595;53.584;10.084;2022-08-11T06:56:47;3.00;;;2.80;;
5153;SDS011;2595;53.584;10.084;2022-08-11T06:59:32;2.90;;;2.70;;
5153;SDS011;2595;53.584;10.084;2022-08-11T07:02:26;6.33;;;2.90;;
5153;SDS011;2595;53.584;10.084;2022-08-11T07:04:59;3.63;;;3.33;;
5153;SDS011;2595;53.584;10.084;2022-08-11T07:13:53;3.50;;;2.63;;
5153;SDS011;2595;53.584;10.084;2022-08-11T07:16:43;2.87;;;2.67;;
5153;SDS011;2595;53.584;10.084;2022-08-11T07:19:11;3.07;;;2.50;;
5153;SDS011;2595;53.584;10.084;2022-08-11T07:21:59;2.53;;;2.43;;
5153;SDS011;2595;53.584;10.084;2022-08-11T07:24:48;2.23;;;2.00;;
5153;SDS011;2595;53.584;10.084;2022-08-11T07:27:55;2.50;;;2.30;;
5153;SDS011;2595;53.584;10.084;2022-08-11T07:31:03;11.03;;;2.73;;
5153;SDS011;2595;53.584;10.084;2022-08-11T07:33:55;2.70;;;2.60;;
5153;SDS011;2595;53.584;10.084;2022-08-11T07:36:25;4.50;;;2.60;;
5153;SDS011;2595;53.584;10.084;2022-08-11T07:38:54;2.40;;;2.30;;
5153;SDS011;2595;53.584;10.084;2022-08-11T07:41:21;2.90;;;2.70;;
5153;SDS011;2595;53.584;10.084;2022-08-11T07:43:54;2.37;;;2.20;;
5153;SDS011;2595;53.584;10.084;2022-08-11T07:46:32;4.73;;;3.00;;
5153;SDS011;2595;53.584;10.084;2022-08-11T07:49:25;2.50;;;2.20;;
5153;SDS011;2595;53.584;10.084;2022-08-11T07:52:10;3.00;;;2.70;;
5153;SDS011;2595;53.584;10.084;2022-08-11T07:55:02;3.37;;;2.63;;
5153;SDS011;2595;53.584;10.084;2022-08-11T07:57:30;2.70;;;2.50;;
5153;SDS011;2595;53.584;10.084;2022-08-11T08:00:16;3.17;;;2.97;;
5153;SDS011;2595;53.584;10.084;2022-08-11T08:03:01;3.60;;;3.40;;
5153;SDS011;2595;53.584;10.084;2022-08-11T08:05:48;4.73;;;2.47;;
5153;SDS011;2595;53.584;10.084;2022-08-11T08:08:34;2.83;;;2.63;;
5153;SDS011;2595;53.584;10.084;2022-08-11T08:11:19;3.40;;;2.70;;
5153;SDS011;2595;53.584;10.084;2022-08-11T08:14:06;4.70;;;2.97;;
5153;SDS011;2595;53.584;10.084;2022-08-11T08:16:51;3.90;;;2.80;;
5153;SDS011;2595;53.584;10.084;2022-08-11T08:19:37;3.00;;;2.70;;
5153;SDS011;2595;53.584;10.084;2022-08-11T08:22:05;3.70;;;3.27;;
5153;SDS011;2595;53.584;10.084;2022-08-11T08:24:31;3.03;;;2.73;;
5153;SDS011;2595;53.584;10.084;2022-08-11T08:26:57;3.23;;;2.77;;
5153;SDS011;2595;53.584;10.084;2022-08-11T08:29:27;2.70;;;2.50;;
5153;SDS011;2595;53.584;10.084;2022-08-11T08:32:28;2.73;;;2.57;;
5153;SDS011;2595;53.584;10.084;2022-08-11T08:34:56;3.70;;;2.90;;
5153;SDS011;2595;53.584;10.084;2022-08-11T08:37:23;5.23;;;3.10;;
5153;SDS011;2595;53.584;10.084;2022-08-11T08:39:50;2.80;;;2.40;;
5153;SDS011;2595;53.584;10.084;2022-08-11T08:42:17;3.97;;;2.63;;
5153;SDS011;2595;53.584;10.084;2022-08-11T08:44:49;3.20;;;3.00;;
5153;SDS011;2595;53.584;10.084;2022-08-11T08:47:20;5.47;;;3.03;;
5153;SDS011;2595;53.584;10.084;2022-08-11T08:49:48;3.33;;;3.00;;
5153;SDS011;2595;53.584;10.084;2022-08-11T08:52:19;4.93;;;3.23;;
5153;SDS011;2595;53.584;10.084;2022-08-11T08:54:48;3.13;;;2.93;;
5153;SDS011;2595;53.584;10.084;2022-08-11T08:57:18;3.23;;;3.03;;
5153;SDS011;2595;53.584;10.084;2022-08-11T08:59:47;3.10;;;2.90;;
5153;SDS011;2595;53.584;10.084;2022-08-11T09:02:14;3.87;;;3.53;;
5153;SDS011;2595;53.584;10.084;2022-08-11T09:04:42;4.53;;;2.63;;
5153;SDS011;2595;53.584;10.084;2022-08-11T09:07:11;3.17;;;2.53;;
5153;SDS011;2595;53.584;10.084;2022-08-11T09:09:57;2.87;;;2.67;;
5153;SDS011;2595;53.584;10.084;2022-08-11T09:12:28;4.30;;;2.33;;
5153;SDS011;2595;53.584;10.084;2022-08-11T09:14:55;2.87;;;2.67;;
5153;SDS011;2595;53.584;10.084;2022-08-11T09:17:24;2.90;;;2.80;;
5153;SDS011;2595;53.584;10.084;2022-08-11T09:19:54;4.33;;;2.37;;
5153;SDS011;2595;53.584;10.084;2022-08-11T09:22:27;2.10;;;2.00;;
5153;SDS011;2595;53.584;10.084;2022-08-11T09:25:14;2.37;;;2.27;;
5153;SDS011;2595;53.584;10.084;2022-08-11T09:27:58;3.40;;;2.17;;
5153;SDS011;2595;53.584;10.084;2022-08-11T09:30:25;2.07;;;1.97;;
5153;SDS011;2595;53.584;10.084;2022-08-11T09:32:55;2.37;;;2.27;;
5153;SDS011;2595;53.584;10.084;2022-08-11T09:35:26;3.10;;;2.10;;
5153;SDS011;2595;53.584;10.084;2022-08-11T09:37:56;2.20;;;2.10;;
5153;SDS011;2595;53.584;10.084;2022-08-11T09:40:42;2.33;;;1.90;;
5153;SDS011;2595;53.584;10.084;2022-08-11T09:43:11;2.67;;;2.50;;
5153;SDS011;2595;53.584;10.084;2022-08-11T09:45:58;2.90;;;2.70;;
5153;SDS011;2595;53.584;10.084;2022-08-11T09:48:25;3.33;;;2.20;;
5153;SDS011;2595;53.584;10.084;2022-08-11T09:50:53;2.17;;;2.07;;
5153;SDS011;2595;53.584;10.084;2022-08-11T09:53:21;5.73;;;2.50;;
5153;SDS011;2595;53.584;10.084;2022-08-11T09:55:49;2.73;;;2.53;;
5153;SDS011;2595;53.584;10.084;2022-08-11T09:58:16;2.60;;;2.40;;
5153;SDS011;2595;53.584;10.084;2022-08-11T10:00:43;2.20;;;2.00;;
5153;SDS011;2595;53.584;10.084;2022-08-11T10:03:15;2.43;;;2.33;;
5153;SDS011;2595;53.584;10.084;2022-08-11T10:05:50;2.77;;;2.30;;
5153;SDS011;2595;53.584;10.084;2022-08-11T10:08:38;2.07;;;1.97;;
5153;SDS011;2595;53.584;10.084;2022-08-11T10:11:08;3.70;;;2.60;;
5153;SDS011;2595;53.584;10.084;2022-08-11T10:13:36;2.10;;;2.00;;
5153;SDS011;2595;53.584;10.084;2022-08-11T10:16:27;2.23;;;2.13;;
5153;SDS011;2595;53.584;10.084;2022-08-11T10:18:54;2.17;;;2.07;;
5153;SDS011;2595;53.584;10.084;2022-08-11T10:23:53;2.90;;;2.27;;
5153;SDS011;2595;53.584;10.084;2022-08-11T10:26:38;3.60;;;2.47;;
5153;SDS011;2595;53.584;10.084;2022-08-11T10:29:29;2.13;;;2.03;;
5153;SDS011;2595;53.584;10.084;2022-08-11T10:32:25;2.20;;;2.10;;
5153;SDS011;2595;53.584;10.084;2022-08-11T10:35:14;2.40;;;2.20;;
5153;SDS011;2595;53.584;10.084;2022-08-11T10:37:41;4.23;;;2.20;;
5153;SDS011;2595;53.584;10.084;2022-08-11T10:40:12;1.87;;;1.77;;
5153;SDS011;2595;53.584;10.084;2022-08-11T10:42:39;2.27;;;2.17;;
5153;SDS011;2595;53.584;10.084;2022-08-11T10:45:24;2.10;;;2.00;;
5153;SDS011;2595;53.584;10.084;2022-08-11T10:48:09;2.97;;;2.70;;
5153;SDS011;2595;53.584;10.084;2022-08-11T10:50:36;2.03;;;1.93;;
5153;SDS011;2595;53.584;10.084;2022-08-11T10:53:20;2.13;;;2.03;;
5153;SDS011;2595;53.584;10.084;2022-08-11T10:56:07;2.40;;;2.03;;
5153;SDS011;2595;53.584;10.084;2022-08-11T10:58:52;14.03;;;2.20;;
5153;SDS011;2595;53.584;10.084;2022-08-11T11:04:17;1.90;;;1.80;;
5153;SDS011;2595;53.584;10.084;2022-08-11T11:06:48;2.40;;;1.70;;
5153;SDS011;2595;53.584;10.084;2022-08-11T11:09:24;2.33;;;2.23;;
5153;SDS011;2595;53.584;10.084;2022-08-11T11:11:58;2.63;;;2.10;;
5153;SDS011;2595;53.584;10.084;2022-08-11T11:14:52;1.60;;;1.50;;
5153;SDS011;2595;53.584;10.084;2022-08-11T11:17:40;1.73;;;1.63;;
5153;SDS011;2595;53.584;10.084;2022-08-11T11:20:25;1.60;;;1.50;;
5153;SDS011;2595;53.584;10.084;2022-08-11T11:23:00;1.83;;;1.40;;
5153;SDS011;2595;53.584;10.084;2022-08-11T11:25:54;1.73;;;1.63;;
5153;SDS011;2595;53.584;10.084;2022-08-11T11:36:49;2.10;;;2.00;;
5153;SDS011;2595;53.584;10.084;2022-08-11T11:39:20;2.33;;;1.70;;
5153;SDS011;2595;53.584;10.084;2022-08-11T11:41:47;2.10;;;1.90;;
5153;SDS011;2595;53.584;10.084;2022-08-11T11:44:15;2.23;;;1.77;;
5153;SDS011;2595;53.584;10.084;2022-08-11T11:46:42;1.60;;;1.50;;
5153;SDS011;2595;53.584;10.084;2022-08-11T11:49:09;2.00;;;1.90;;
5153;SDS011;2595;53.584;10.084;2022-08-11T11:51:37;3.10;;;1.70;;
5153;SDS011;2595;53.584;10.084;2022-08-11T11:54:03;2.20;;;1.87;;
5153;SDS011;2595;53.584;10.084;2022-08-11T11:56:29;1.70;;;1.60;;
5153;SDS011;2595;53.584;10.084;2022-08-11T11:58:56;1.70;;;1.60;;
5153;SDS011;2595;53.584;10.084;2022-08-11T12:01:41;1.40;;;1.30;;
5153;SDS011;2595;53.584;10.084;2022-08-11T12:04:07;1.60;;;1.47;;
5153;SDS011;2595;53.584;10.084;2022-08-11T12:06:35;2.17;;;1.80;;
5153;SDS011;2595;53.584;10.084;2022-08-11T12:09:02;2.23;;;2.00;;
5153;SDS011;2595;53.584;10.084;2022-08-11T12:11:28;3.67;;;1.70;;
5153;SDS011;2595;53.584;10.084;2022-08-11T12:14:15;2.00;;;1.73;;
5153;SDS011;2595;53.584;10.084;2022-08-11T12:16:43;2.07;;;1.60;;
5153;SDS011;2595;53.584;10.084;2022-08-11T12:19:11;2.83;;;1.70;;
5153;SDS011;2595;53.584;10.084;2022-08-11T12:21:41;2.13;;;2.03;;
5153;SDS011;2595;53.584;10.084;2022-08-11T12:24:31;1.57;;;1.47;;
5153;SDS011;2595;53.584;10.084;2022-08-11T12:27:17;2.33;;;1.60;;
5153;SDS011;2595;53.584;10.084;2022-08-11T12:29:47;1.80;;;1.70;;
5153;SDS011;2595;53.584;10.084;2022-08-11T12:32:19;1.77;;;1.67;;
5153;SDS011;2595;53.584;10.084;2022-08-11T12:34:46;2.20;;;2.10;;
5153;SDS011;2595;53.584;10.084;2022-08-11T12:37:13;1.73;;;1.63;;
5153;SDS011;2595;53.584;10.084;2022-08-11T12:39:45;1.73;;;1.63;;
5153;SDS011;2595;53.584;10.084;2022-08-11T12:42:32;1.60;;;1.50;;
5153;SDS011;2595;53.584;10.084;2022-08-11T12:45:18;1.80;;;1.70;;
5153;SDS011;2595;53.584;10.084;2022-08-11T12:48:09;4.77;;;1.63;;
5153;SDS011;2595;53.584;10.084;2022-08-11T12:51:01;2.13;;;1.90;;
5153;SDS011;2595;53.584;10.084;2022-08-11T12:53:54;1.57;;;1.47;;
5153;SDS011;2595;53.584;10.084;2022-08-11T12:56:20;1.70;;;1.60;;
5153;SDS011;2595;53.584;10.084;2022-08-11T12:59:06;2.07;;;1.53;;
5153;SDS011;2595;53.584;10.084;2022-08-11T13:01:52;1.73;;;1.63;;
5153;SDS011;2595;53.584;10.084;2022-08-11T13:04:36;1.60;;;1.50;;
5153;SDS011;2595;53.584;10.084;2022-08-11T13:07:23;1.30;;;1.20;;
5153;SDS011;2595;53.584;10.084;2022-08-11T13:09:52;2.57;;;1.77;;
5153;SDS011;2595;53.584;10.084;2022-08-11T13:12:20;1.50;;;1.40;;
5153;SDS011;2595;53.584;10.084;2022-08-11T13:15:06;3.80;;;1.50;;
5153;SDS011;2595;53.584;10.084;2022-08-11T13:17:33;4.10;;;1.77;;
5153;SDS011;2595;53.584;10.084;2022-08-11T13:19:59;1.50;;;1.23;;
5153;SDS011;2595;53.584;10.084;2022-08-11T13:22:26;2.70;;;1.70;;
5153;SDS011;2595;53.584;10.084;2022-08-11T13:24:53;4.30;;;1.97;;
5153;SDS011;2595;53.584;10.084;2022-08-11T13:27:21;2.60;;;1.83;;
5153;SDS011;2595;53.584;10.084;2022-08-11T13:29:49;2.90;;;2.30;;
5153;SDS011;2595;53.584;10.084;2022-08-11T13:32:18;2.90;;;2.40;;
5153;SDS011;2595;53.584;10.084;2022-08-11T13:34:45;2.40;;;2.00;;
5153;SDS011;2595;53.584;10.084;2022-08-11T13:37:12;2.67;;;2.47;;
5153;SDS011;2595;53.584;10.084;2022-08-11T13:39:39;2.10;;;2.00;;
5153;SDS011;2595;53.584;10.084;2022-08-11T13:42:11;4.43;;;2.53;;
5153;SDS011;2595;53.584;10.084;2022-08-11T13:44:38;6.10;;;1.97;;
5153;SDS011;2595;53.584;10.084;2022-08-11T13:47:05;1.70;;;1.60;;
5153;SDS011;2595;53.584;10.084;2022-08-11T13:49:33;2.10;;;1.90;;
5153;SDS011;2595;53.584;10.084;2022-08-11T13:52:02;1.60;;;1.50;;
5153;SDS011;2595;53.584;10.084;2022-08-11T13:54:30;3.10;;;1.50;;
5153;SDS011;2595;53.584;10.084;2022-08-11T13:57:00;1.80;;;1.70;;
5153;SDS011;2595;53.584;10.084;2022-08-11T13:59:29;1.50;;;1.40;;
5153;SDS011;2595;53.584;10.084;2022-08-11T14:02:06;1.80;;;1.40;;
5153;SDS011;2595;53.584;10.084;2022-08-11T14:04:41;1.93;;;1.83;;
5153;SDS011;2595;53.584;10.084;2022-08-11T14:07:20;1.50;;;1.40;;
5153;SDS011;2595;53.584;10.084;2022-08-11T14:09:48;2.00;;;1.63;;
5153;SDS011;2595;53.584;10.084;2022-08-11T14:12:22;3.27;;;1.73;;
5153;SDS011;2595;53.584;10.084;2022-08-11T14:18:08;1.87;;;1.77;;
5153;SDS011;2595;53.584;10.084;2022-08-11T14:20:53;2.20;;;1.40;;
5153;SDS011;2595;53.584;10.084;2022-08-11T14:23:40;1.93;;;1.83;;
5153;SDS011;2595;53.584;10.084;2022-08-11T14:26:11;1.90;;;1.80;;
5153;SDS011;2595;53.584;10.084;2022-08-11T14:28:48;1.70;;;1.60;;
5153;SDS011;2595;53.584;10.084;2022-08-11T14:31:18;2.30;;;2.10;;
5153;SDS011;2595;53.584;10.084;2022-08-11T14:33:46;1.73;;;1.53;;
5153;SDS011;2595;53.584;10.084;2022-08-11T14:36:12;4.17;;;2.10;;
5153;SDS011;2595;53.584;10.084;2022-08-11T14:38:38;2.00;;;1.90;;
5153;SDS011;2595;53.584;10.084;2022-08-11T14:41:05;2.50;;;2.30;;
5153;SDS011;2595;53.584;10.084;2022-08-11T14:43:51;1.87;;;1.77;;
5153;SDS011;2595;53.584;10.084;2022-08-11T14:46:40;4.03;;;2.20;;
5153;SDS011;2595;53.584;10.084;2022-08-11T14:49:26;1.47;;;1.33;;
5153;SDS011;2595;53.584;10.084;2022-08-11T14:51:52;1.57;;;1.47;;
5153;SDS011;2595;53.584;10.084;2022-08-11T14:54:27;1.80;;;1.70;;
5153;SDS011;2595;53.584;10.084;2022-08-11T14:57:14;2.43;;;2.30;;
5153;SDS011;2595;53.584;10.084;2022-08-11T14:59:41;2.57;;;1.60;;
5153;SDS011;2595;53.584;10.084;2022-08-11T15:02:08;1.57;;;1.47;;
5153;SDS011;2595;53.584;10.084;2022-08-11T15:04:54;1.90;;;1.80;;
5153;SDS011;2595;53.584;10.084;2022-08-11T15:07:22;1.87;;;1.77;;
5153;SDS011;2595;53.584;10.084;2022-08-11T15:09:53;2.13;;;1.93;;
5153;SDS011;2595;53.584;10.084;2022-08-11T15:12:23;1.50;;;1.40;;
5153;SDS011;2595;53.584;10.084;2022-08-11T15:14:50;1.57;;;1.47;;
5153;SDS011;2595;53.584;10.084;2022-08-11T15:17:35;4.13;;;1.50;;
5153;SDS011;2595;53.584;10.084;2022-08-11T15:20:03;1.70;;;1.60;;
5153;SDS011;2595;53.584;10.084;2022-08-11T15:22:51;2.97;;;1.60;;
5153;SDS011;2595;53.584;10.084;2022-08-11T15:25:36;2.23;;;1.70;;
5153;SDS011;2595;53.584;10.084;2022-08-11T15:28:04;1.40;;;1.30;;
5153;SDS011;2595;53.584;10.084;2022-08-11T15:30:51;2.60;;;2.50;;
5153;SDS011;2595;53.584;10.084;2022-08-11T15:33:39;1.70;;;1.60;;
5153;SDS011;2595;53.584;10.084;2022-08-11T15:36:26;1.83;;;1.73;;
5153;SDS011;2595;53.584;10.084;2022-08-11T15:39:15;1.93;;;1.83;;
5153;SDS011;2595;53.584;10.084;2022-08-11T15:41:49;3.07;;;1.97;;
5153;SDS011;2595;53.584;10.084;2022-08-11T15:44:56;5.00;;;2.67;;
5153;SDS011;2595;53.584;10.084;2022-08-11T15:47:55;1.80;;;1.70;;
5153;SDS011;2595;53.584;10.084;2022-08-11T15:50:25;3.93;;;1.90;;
5153;SDS011;2595;53.584;10.084;2022-08-11T15:55:49;2.17;;;1.97;;
5153;SDS011;2595;53.584;10.084;2022-08-11T15:58:16;1.70;;;1.60;;
5153;SDS011;2595;53.584;10.084;2022-08-11T16:01:02;2.63;;;2.43;;
5153;SDS011;2595;53.584;10.084;2022-08-11T16:03:51;2.50;;;2.30;;
5153;SDS011;2595;53.584;10.084;2022-08-11T16:06:44;5.23;;;1.77;;
5153;SDS011;2595;53.584;10.084;2022-08-11T16:09:19;2.33;;;1.80;;
5153;SDS011;2595;53.584;10.084;2022-08-11T16:11:48;2.20;;;2.00;;
5153;SDS011;2595;53.584;10.084;2022-08-11T16:14:16;1.60;;;1.50;;
5153;SDS011;2595;53.584;10.084;2022-08-11T16:17:03;4.63;;;1.80;;
5153;SDS011;2595;53.584;10.084;2022-08-11T16:19:31;2.40;;;2.10;;
5153;SDS011;2595;53.584;10.084;2022-08-11T16:22:00;1.73;;;1.30;;
5153;SDS011;2595;53.584;10.084;2022-08-11T16:24:32;1.60;;;1.50;;
5153;SDS011;2595;53.584;10.084;2022-08-11T16:26:59;2.37;;;2.20;;
5153;SDS011;2595;53.584;10.084;2022-08-11T16:29:27;1.80;;;1.70;;
5153;SDS011;2595;53.584;10.084;2022-08-11T16:31:55;6.73;;;1.90;;
5153;SDS011;2595;53.584;10.084;2022-08-11T16:34:40;1.63;;;1.33;;
5153;SDS011;2595;53.584;10.084;2022-08-11T16:37:27;2.43;;;1.90;;
5153;SDS011;2595;53.584;10.084;2022-08-11T16:40:13;3.20;;;1.87;;
5153;SDS011;2595;53.584;10.084;2022-08-11T16:42:41;2.07;;;1.97;;
5153;SDS011;2595;53.584;10.084;2022-08-11T16:45:28;1.60;;;1.50;;
5153;SDS011;2595;53.584;10.084;2022-08-11T16:48:13;2.30;;;1.30;;
5153;SDS011;2595;53.584;10.084;2022-08-11T16:50:39;3.57;;;2.07;;
5153;SDS011;2595;53.584;10.084;2022-08-11T16:53:06;2.00;;;1.40;;
5153;SDS011;2595;53.584;10.084;2022-08-11T16:55:32;1.77;;;1.67;;
5153;SDS011;2595;53.584;10.084;2022-08-11T16:57:59;3.63;;;1.70;;
5153;SDS011;2595;53.584;10.084;2022-08-11T17:00:44;1.77;;;1.67;;
5153;SDS011;2595;53.584;10.084;2022-08-11T17:03:11;2.00;;;1.80;;
5153;SDS011;2595;53.584;10.084;2022-08-11T17:05:56;4.47;;;1.90;;
5153;SDS011;2595;53.584;10.084;2022-08-11T17:08:46;1.73;;;1.63;;
5153;SDS011;2595;53.584;10.084;2022-08-11T17:11:36;2.20;;;2.00;;
5153;SDS011;2595;53.584;10.084;2022-08-11T17:14:25;2.63;;;1.80;;
5153;SDS011;2595;53.584;10.084;2022-08-11T17:16:58;1.43;;;1.33;;
5153;SDS011;2595;53.584;10.084;2022-08-11T17:19:27;2.30;;;1.67;;
5153;SDS011;2595;53.584;10.084;2022-08-11T17:21:57;1.93;;;1.83;;
5153;SDS011;2595;53.584;10.084;2022-08-11T17:24:45;3.17;;;1.60;;
5153;SDS011;2595;53.584;10.084;2022-08-11T17:27:12;4.70;;;2.30;;
5153;SDS011;2595;53.584;10.084;2022-08-11T17:29:45;2.87;;;1.70;;
5153;SDS011;2595;53.584;10.084;2022-08-11T17:32:14;1.70;;;1.60;;
5153;SDS011;2595;53.584;10.084;2022-08-11T17:35:02;1.73;;;1.63;;
5153;SDS011;2595;53.584;10.084;2022-08-11T17:37:50;3.00;;;1.70;;
5153;SDS011;2595;53.584;10.084;2022-08-11T17:40:17;1.90;;;1.80;;
5153;SDS011;2595;53.584;10.084;2022-08-11T17:42:49;2.90;;;1.87;;
5153;SDS011;2595;53.584;10.084;2022-08-11T17:45:37;11.17;;;1.73;;
5153;SDS011;2595;53.584;10.084;2022-08-11T17:48:32;1.57;;;1.47;;
5153;SDS011;2595;53.584;10.084;2022-08-11T17:51:05;2.00;;;1.90;;
5153;SDS011;2595;53.584;10.084;2022-08-11T17:54:03;2.03;;;1.93;;
5153;SDS011;2595;53.584;10.084;2022-08-11T17:56:49;1.50;;;1.40;;
5153;SDS011;2595;53.584;10.084;2022-08-11T17:59:34;1.73;;;1.57;;
5153;SDS011;2595;53.584;10.084;2022-08-11T18:02:23;1.40;;;1.30;;
5153;SDS011;2595;53.584;10.084;2022-08-11T18:05:11;2.57;;;1.70;;
5153;SDS011;2595;53.584;10.084;2022-08-11T18:07:40;4.23;;;2.20;;
5153;SDS011;2595;53.584;10.084;2022-08-11T18:10:27;5.80;;;1.20;;
5153;SDS011;2595;53.584;10.084;2022-08-11T18:13:13;1.70;;;1.50;;
5153;SDS011;2595;53.584;10.084;2022-08-11T18:16:00;1.77;;;1.63;;
5153;SDS011;2595;53.584;10.084;2022-08-11T18:18:44;2.13;;;2.00;;
5153;SDS011;2595;53.584;10.084;2022-08-11T18:21:28;1.80;;;1.70;;
5153;SDS011;2595;53.584;10.084;2022-08-11T18:24:13;2.60;;;2.50;;
5153;SDS011;2595;53.584;10.084;2022-08-11T18:26:59;1.67;;;1.57;;
5153;SDS011;2595;53.584;10.084;2022-08-11T18:29:47;4.47;;;2.17;;
5153;SDS011;2595;53.584;10.084;2022-08-11T18:32:34;1.40;;;1.30;;
5153;SDS011;2595;53.584;10.084;2022-08-11T18:35:20;4.00;;;1.77;;
5153;SDS011;2595;53.584;10.084;2022-08-11T18:38:05;1.70;;;1.60;;
5153;SDS011;2595;53.584;10.084;2022-08-11T18:40:54;1.93;;;1.60;;
5153;SDS011;2595;53.584;10.084;2022-08-11T18:43:41;2.90;;;2.70;;
5153;SDS011;2595;53.584;10.084;2022-08-11T18:46:31;4.13;;;2.40;;
5153;SDS011;2595;53.584;10.084;2022-08-11T18:49:21;3.17;;;2.37;;
5153;SDS011;2595;53.584;10.084;2022-08-11T18:52:09;3.87;;;1.50;;
5153;SDS011;2595;53.584;10.084;2022-08-11T18:54:56;4.13;;;2.30;;
5153;SDS011;2595;53.584;10.084;2022-08-11T18:57:44;3.40;;;1.90;;
5153;SDS011;2595;53.584;10.084;2022-08-11T19:00:31;2.23;;;1.80;;
5153;SDS011;2595;53.584;10.084;2022-08-11T19:03:17;2.10;;;2.00;;
5153;SDS011;2595;53.584;10.084;2022-08-11T19:06:03;5.20;;;2.00;;
5153;SDS011;2595;53.584;10.084;2022-08-11T19:08:51;1.97;;;1.87;;
5153;SDS011;2595;53.584;10.084;2022-08-11T19:11:39;1.60;;;1.50;;
5153;SDS011;2595;53.584;10.084;2022-08-11T19:14:25;2.13;;;1.93;;
5153;SDS011;2595;53.584;10.084;2022-08-11T19:17:12;3.60;;;1.90;;
5153;SDS011;2595;53.584;10.084;2022-08-11T19:19:57;2.03;;;1.93;;
5153;SDS011;2595;53.584;10.084;2022-08-11T19:22:43;1.77;;;1.60;;
5153;SDS011;2595;53.584;10.084;2022-08-11T19:25:28;3.47;;;1.83;;
5153;SDS011;2595;53.584;10.084;2022-08-11T19:28:14;2.20;;;1.40;;
5153;SDS011;2595;53.584;10.084;2022-08-11T19:31:00;1.80;;;1.63;;
5153;SDS011;2595;53.584;10.084;2022-08-11T19:33:46;2.80;;;1.80;;
5153;SDS011;2595;53.584;10.084;2022-08-11T19:36:32;3.10;;;1.43;;
5153;SDS011;2595;53.584;10.084;2022-08-11T19:39:18;1.90;;;1.70;;
5153;SDS011;2595;53.584;10.084;2022-08-11T19:42:05;1.77;;;1.67;;